createdAt,value
2018-05-06T00:01:04.924Z,15.30
2018-05-06T00:03:33.126Z,15.33
2018-05-06T00:06:01.305Z,14.70
2018-05-06T00:08:35.941Z,19.20
2018-05-06T00:11:04.119Z,13.10
2018-05-06T00:13:32.397Z,13.20
2018-05-06T00:16:00.587Z,17.33
2018-05-06T00:18:36.181Z,19.23
2018-05-06T00:21:04.456Z,19.50
2018-05-06T00:23:38.816Z,19.30
2018-05-06T00:26:08.525Z,22.03
2018-05-06T00:28:37.496Z,16.27
2018-05-06T00:31:05.800Z,16.00
2018-05-06T00:33:34.788Z,15.10
2018-05-06T00:36:03.750Z,16.93
2018-05-06T00:38:38.627Z,16.33
2018-05-06T00:41:06.835Z,14.30
2018-05-06T00:43:35.066Z,12.90
2018-05-06T00:46:04.101Z,15.63
2018-05-06T00:48:32.309Z,15.03
2018-05-06T00:54:01.345Z,14.80
2018-05-06T00:56:30.285Z,14.13
2018-05-06T00:58:58.498Z,14.73
2018-05-06T01:01:26.769Z,13.93
2018-05-06T01:03:54.946Z,13.37
2018-05-06T01:06:36.238Z,13.27
2018-05-06T01:09:05.319Z,15.43
2018-05-06T01:11:34.291Z,14.33
2018-05-06T01:14:02.582Z,15.13
2018-05-06T01:16:30.853Z,14.20
2018-05-06T01:21:59.617Z,18.63
2018-05-06T01:24:27.820Z,17.20
2018-05-06T01:29:56.850Z,23.07
2018-05-06T01:32:37.774Z,23.00
2018-05-06T01:35:05.989Z,18.83
2018-05-06T01:37:37.759Z,13.43
2018-05-06T01:40:34.905Z,15.37
2018-05-06T01:43:03.898Z,13.80
2018-05-06T01:45:32.841Z,16.90
2018-05-06T01:51:02.500Z,13.97
2018-05-06T01:53:30.681Z,15.50
2018-05-06T01:55:58.891Z,16.30
2018-05-06T01:58:37.689Z,15.17
2018-05-06T02:01:06.669Z,15.40
2018-05-06T02:03:34.889Z,16.30
2018-05-06T02:06:03.072Z,17.57
2018-05-06T02:08:31.294Z,13.13
2018-05-06T02:10:59.477Z,15.90
2018-05-06T02:13:27.717Z,13.03
2018-05-06T02:18:56.601Z,15.60
2018-05-06T02:21:24.846Z,15.13
2018-05-06T02:23:53.834Z,13.40
2018-05-06T02:26:22.020Z,14.60
2018-05-06T02:31:51.636Z,15.73
2018-05-06T02:34:19.853Z,15.37
2018-05-06T02:36:48.073Z,14.10
2018-05-06T02:39:16.347Z,16.70
2018-05-06T02:41:44.540Z,13.27
2018-05-06T02:47:05.445Z,16.20
2018-05-06T02:49:34.398Z,12.93
2018-05-06T02:55:02.934Z,13.47
2018-05-06T02:57:36.504Z,13.93
2018-05-06T03:00:04.716Z,11.97
2018-05-06T03:02:32.977Z,13.90
2018-05-06T03:05:01.167Z,16.00
2018-05-06T03:07:30.922Z,16.90
2018-05-06T03:09:59.142Z,12.57
2018-05-06T03:12:36.033Z,14.57
2018-05-06T03:15:05.024Z,19.40
2018-05-06T03:17:33.981Z,18.60
2018-05-06T03:20:02.215Z,16.53
2018-05-06T03:22:30.392Z,16.93
2018-05-06T03:27:59.052Z,18.67
2018-05-06T03:30:27.341Z,14.50
2018-05-06T03:32:55.525Z,12.87
2018-05-06T03:35:24.601Z,14.67
2018-05-06T03:37:54.298Z,13.70
2018-05-06T03:40:22.591Z,12.50
2018-05-06T03:42:51.669Z,12.13
2018-05-06T03:45:19.958Z,12.53
2018-05-06T03:47:48.919Z,12.20
2018-05-06T03:50:17.102Z,14.93
2018-05-06T03:52:45.394Z,16.53
2018-05-06T03:55:14.411Z,10.83
2018-05-06T03:58:01.208Z,11.70
2018-05-06T04:00:42.325Z,12.50
2018-05-06T04:03:36.631Z,13.00
2018-05-06T04:06:04.823Z,12.33
2018-05-06T04:08:36.536Z,13.60
2018-05-06T04:11:04.728Z,13.70
2018-05-06T04:13:33.004Z,13.10
2018-05-06T04:16:01.194Z,11.40
2018-05-06T04:18:29.382Z,12.77
2018-05-06T04:20:58.409Z,11.90
2018-05-06T04:23:36.982Z,13.60
2018-05-06T04:26:05.224Z,17.40
2018-05-06T04:28:33.456Z,10.93
2018-05-06T04:31:01.664Z,12.03
2018-05-06T04:33:29.914Z,13.10
2018-05-06T04:35:59.120Z,21.13
2018-05-06T04:38:27.436Z,13.77
2018-05-06T04:40:55.750Z,22.47
2018-05-06T04:43:24.031Z,12.83
2018-05-06T04:45:52.304Z,14.53
2018-05-06T04:48:22.099Z,11.50
2018-05-06T04:50:50.395Z,12.33
2018-05-06T04:53:19.444Z,16.70
2018-05-06T04:55:47.719Z,16.13
2018-05-06T04:58:35.410Z,13.33
2018-05-06T05:01:04.444Z,14.47
2018-05-06T05:03:36.557Z,11.30
2018-05-06T05:06:04.765Z,12.07
2018-05-06T05:08:33.004Z,15.00
2018-05-06T05:11:01.285Z,13.93
2018-05-06T05:13:30.475Z,12.20
2018-05-06T05:15:58.668Z,14.57
2018-05-06T05:18:36.387Z,11.07
2018-05-06T05:21:04.601Z,12.33
2018-05-06T05:23:32.900Z,12.30
2018-05-06T05:29:02.113Z,11.70
2018-05-06T05:31:36.968Z,10.63
2018-05-06T05:34:34.934Z,12.80
2018-05-06T05:40:34.898Z,14.37
2018-05-06T05:46:34.839Z,12.57
2018-05-06T05:52:04.207Z,12.03
2018-05-06T05:54:38.368Z,8.97
2018-05-06T05:57:36.230Z,10.27
2018-05-06T06:00:04.409Z,13.63
2018-05-06T06:02:39.087Z,8.93
2018-05-06T06:05:35.539Z,13.67
2018-05-06T06:11:15.377Z,11.67
2018-05-06T06:13:43.658Z,13.30
2018-05-06T06:16:13.402Z,10.80
2018-05-06T06:21:42.259Z,10.13
2018-05-06T06:24:36.442Z,14.60
2018-05-06T06:27:35.573Z,13.37
2018-05-06T06:30:04.623Z,11.33
2018-05-06T06:32:39.158Z,11.67
2018-05-06T06:35:34.811Z,10.63
2018-05-06T06:38:03.791Z,10.37
2018-05-06T06:40:38.609Z,10.50
2018-05-06T06:43:35.452Z,13.17
2018-05-06T06:46:03.729Z,12.50
2018-05-06T06:48:38.122Z,11.37
2018-05-06T06:51:35.306Z,11.20
2018-05-06T06:54:03.577Z,9.73
2018-05-06T06:56:37.764Z,9.97
2018-05-06T06:59:05.971Z,12.77
2018-05-06T07:01:37.825Z,10.00
2018-05-06T07:04:06.001Z,12.93
2018-05-06T07:06:37.616Z,14.50
2018-05-06T07:09:36.510Z,15.50
2018-05-06T07:12:04.727Z,18.30
2018-05-06T07:14:36.785Z,13.70
2018-05-06T07:17:06.490Z,10.93
2018-05-06T07:19:38.259Z,16.60
2018-05-06T07:26:37.160Z,16.70
2018-05-06T07:29:36.178Z,9.80
2018-05-06T07:32:04.454Z,12.03
2018-05-06T07:34:37.288Z,11.17
2018-05-06T07:37:36.020Z,11.90
2018-05-06T07:40:05.761Z,9.30
2018-05-06T07:42:37.754Z,10.00
2018-05-06T07:45:36.128Z,11.60
2018-05-06T07:48:04.494Z,11.70
2018-05-06T07:50:32.672Z,22.20
2018-05-06T07:56:01.874Z,11.20
2018-05-06T07:58:30.061Z,11.27
2018-05-06T08:00:58.299Z,12.83
2018-05-06T08:03:37.902Z,10.97
2018-05-06T08:09:35.468Z,9.20
2018-05-06T08:19:55.002Z,11.47
2018-05-06T08:27:35.586Z,9.63
2018-05-06T08:33:21.496Z,8.40
2018-05-06T08:35:49.685Z,8.90
2018-05-06T08:41:36.251Z,9.73
2018-05-06T08:47:35.507Z,12.20
2018-05-06T08:56:35.255Z,10.17
2018-05-06T09:02:25.494Z,7.63
2018-05-06T09:07:54.934Z,8.50
2018-05-06T09:13:36.392Z,7.77
2018-05-06T09:19:35.129Z,8.70
2018-05-06T09:29:39.679Z,9.00
2018-05-06T09:32:35.615Z,8.10
2018-05-06T09:35:03.817Z,8.53
2018-05-06T09:37:32.160Z,7.70
2018-05-06T09:40:00.411Z,8.77
2018-05-06T09:42:28.599Z,17.00
2018-05-06T09:47:57.275Z,10.27
2018-05-06T09:50:25.451Z,9.03
2018-05-06T09:52:53.658Z,7.60
2018-05-06T09:55:21.849Z,8.50
2018-05-06T09:57:50.096Z,6.60
2018-05-06T10:00:18.384Z,7.60
2018-05-06T10:02:46.561Z,7.70
2018-05-06T10:05:14.869Z,7.73
2018-05-06T10:07:43.055Z,7.90
2018-05-06T10:10:37.666Z,6.77
2018-05-06T10:13:06.730Z,6.27
2018-05-06T10:15:34.915Z,7.43
2018-05-06T10:18:03.874Z,11.60
2018-05-06T10:20:32.164Z,9.00
2018-05-06T10:23:01.119Z,7.83
2018-05-06T10:25:29.294Z,6.97
2018-05-06T10:27:57.477Z,9.10
2018-05-06T10:30:25.686Z,6.80
2018-05-06T10:32:55.376Z,6.57
2018-05-06T10:35:23.635Z,8.70
2018-05-06T10:37:51.811Z,6.97
2018-05-06T10:40:19.992Z,7.13
2018-05-06T10:42:48.242Z,6.80
2018-05-06T10:45:16.466Z,6.73
2018-05-06T10:47:45.145Z,6.40
2018-05-06T10:50:14.150Z,9.00
2018-05-06T10:52:43.138Z,7.20
2018-05-06T10:55:37.626Z,7.37
2018-05-06T10:58:06.610Z,8.97
2018-05-06T11:00:34.807Z,6.47
2018-05-06T11:03:03.981Z,10.17
2018-05-06T11:05:32.161Z,9.00
2018-05-06T11:08:00.338Z,8.57
2018-05-06T11:10:28.652Z,9.33
2018-05-06T11:12:56.755Z,7.10
2018-05-06T11:15:24.963Z,8.20
2018-05-06T11:17:53.795Z,6.30
2018-05-06T11:20:36.503Z,7.23
2018-05-06T11:23:04.692Z,7.10
2018-05-06T11:25:32.914Z,7.97
2018-05-06T11:28:01.156Z,7.10
2018-05-06T11:30:29.346Z,8.87
2018-05-06T11:32:57.641Z,7.13
2018-05-06T11:35:26.712Z,6.80
2018-05-06T11:37:54.918Z,7.20
2018-05-06T11:40:23.898Z,6.83
2018-05-06T11:42:52.166Z,8.10
2018-05-06T11:45:37.497Z,6.87
2018-05-06T11:48:35.777Z,9.53
2018-05-06T11:51:03.997Z,10.53
2018-05-06T11:53:32.238Z,10.40
2018-05-06T12:13:37.604Z,7.37
2018-05-06T12:19:35.850Z,9.43
2018-05-06T12:31:35.894Z,16.20
2018-05-06T12:37:36.134Z,9.07
2018-05-06T12:49:20.423Z,7.80
2018-05-06T12:51:48.604Z,6.87
2018-05-06T12:57:37.932Z,7.47
2018-05-06T13:00:35.950Z,6.90
2018-05-06T13:09:35.922Z,6.60
2018-05-06T13:15:04.041Z,8.90
2018-05-06T13:17:38.977Z,33.83
2018-05-06T13:20:37.014Z,30.63
2018-05-06T13:23:35.815Z,9.50
2018-05-06T13:29:35.366Z,17.50
2018-05-06T13:38:35.806Z,11.63
2018-05-06T13:44:35.606Z,21.33
2018-05-06T13:47:04.636Z,15.17
2018-05-06T13:49:32.814Z,18.80
2018-05-06T13:52:01.113Z,24.70
2018-05-06T13:54:29.423Z,8.30
2018-05-06T13:56:58.486Z,9.43
2018-05-06T13:59:26.783Z,15.60
2018-05-06T14:01:55.048Z,27.17
2018-05-06T14:04:36.458Z,15.33
2018-05-06T14:07:05.411Z,13.30
2018-05-06T14:09:33.653Z,9.40
2018-05-06T14:12:01.988Z,17.60
2018-05-06T14:14:37.683Z,11.03
2018-05-06T14:17:05.909Z,11.73
2018-05-06T14:19:38.374Z,11.63
2018-05-06T14:22:06.708Z,15.00
2018-05-06T14:24:34.890Z,8.23
2018-05-06T14:27:03.095Z,16.20
2018-05-06T14:29:31.361Z,9.37
2018-05-06T14:31:59.600Z,8.80
2018-05-06T14:34:27.825Z,9.27
2018-05-06T14:36:56.815Z,8.63
2018-05-06T14:39:24.999Z,14.40
2018-05-06T14:44:54.168Z,16.17
2018-05-06T14:47:43.096Z,10.77
2018-05-06T14:50:11.401Z,12.73
2018-05-06T14:52:39.623Z,8.03
2018-05-06T14:55:08.596Z,8.10
2018-05-06T14:57:36.881Z,9.13
2018-05-06T15:00:05.091Z,7.60
2018-05-06T15:02:33.281Z,6.83
2018-05-06T15:05:01.768Z,7.40
2018-05-06T15:07:30.051Z,10.73
2018-05-06T15:09:58.369Z,10.10
2018-05-06T15:12:26.645Z,7.33
2018-05-06T15:14:54.836Z,8.77
2018-05-06T15:17:23.840Z,7.63
2018-05-06T15:19:52.218Z,6.93
2018-05-06T15:22:20.581Z,8.03
2018-05-06T15:24:49.560Z,6.20
2018-05-06T15:27:17.765Z,7.80
2018-05-06T15:32:47.553Z,7.93
2018-05-06T15:35:15.785Z,7.80
2018-05-06T15:37:44.014Z,8.03
2018-05-06T15:40:12.283Z,7.50
2018-05-06T15:42:40.559Z,6.23
2018-05-06T15:45:08.763Z,8.30
2018-05-06T15:47:37.710Z,7.03
2018-05-06T15:50:05.938Z,8.87
2018-05-06T15:52:37.531Z,6.97
2018-05-06T15:55:05.725Z,9.07
2018-05-06T15:57:37.908Z,6.23
2018-05-06T16:00:07.282Z,7.50
2018-05-06T16:05:45.388Z,8.97
2018-05-06T16:08:13.621Z,9.13
2018-05-06T16:10:42.569Z,11.70
2018-05-06T16:13:10.746Z,7.30
2018-05-06T16:15:39.070Z,7.87
2018-05-06T16:18:08.039Z,7.10
2018-05-06T16:20:37.743Z,8.50
2018-05-06T16:23:05.957Z,7.03
2018-05-06T16:25:37.058Z,6.97
2018-05-06T16:28:05.278Z,9.77
2018-05-06T16:30:33.606Z,7.77
2018-05-06T16:33:01.883Z,8.43
2018-05-06T16:35:30.162Z,8.00
2018-05-06T16:37:58.427Z,7.70
2018-05-06T16:40:36.519Z,6.67
2018-05-06T16:43:04.814Z,8.40
2018-05-06T16:45:39.383Z,8.77
2018-05-06T16:48:07.624Z,8.23
2018-05-06T16:50:35.848Z,6.77
2018-05-06T16:53:04.038Z,7.00
2018-05-06T16:55:32.251Z,7.90
2018-05-06T16:58:01.238Z,8.27
2018-05-06T17:00:29.459Z,8.37
2018-05-06T17:02:57.631Z,6.40
2018-05-06T17:05:25.819Z,7.83
2018-05-06T17:07:54.142Z,6.90
2018-05-06T17:10:36.646Z,6.87
2018-05-06T17:13:04.860Z,8.13
2018-05-06T17:15:33.153Z,7.40
2018-05-06T17:18:01.359Z,7.03
2018-05-06T17:20:29.600Z,8.70
2018-05-06T17:22:57.778Z,7.00
2018-05-06T17:25:26.059Z,6.70
2018-05-06T17:27:54.399Z,7.33
2018-05-06T17:30:36.649Z,7.47
2018-05-06T17:33:04.874Z,8.67
2018-05-06T17:35:39.571Z,9.93
2018-05-06T17:38:07.946Z,7.80
2018-05-06T17:40:37.271Z,6.93
2018-05-06T17:43:06.222Z,6.40
2018-05-06T17:45:37.338Z,7.97
2018-05-06T17:48:05.622Z,7.30
2018-05-06T17:50:37.051Z,8.17
2018-05-06T17:53:05.324Z,8.30
2018-05-06T17:55:33.662Z,9.53
2018-05-06T18:04:03.914Z,8.20
2018-05-06T18:06:32.110Z,11.93
2018-05-06T18:09:01.377Z,9.00
2018-05-06T18:11:30.065Z,9.60
2018-05-06T18:13:58.871Z,7.40
2018-05-06T18:16:37.386Z,7.80
2018-05-06T18:19:05.623Z,7.90
2018-05-06T18:24:28.005Z,10.20
2018-05-06T18:26:56.255Z,9.17
2018-05-06T18:29:37.848Z,9.27
2018-05-06T18:32:06.060Z,9.43
2018-05-06T18:34:35.062Z,9.20
2018-05-06T18:37:04.078Z,8.20
2018-05-06T18:39:32.858Z,9.30
2018-05-06T18:42:01.826Z,12.83
2018-05-06T18:44:36.858Z,9.87
2018-05-06T18:47:05.999Z,15.17
2018-05-06T18:49:37.702Z,17.13
2018-05-06T18:52:05.995Z,15.90
2018-05-06T18:54:34.974Z,15.00
2018-05-06T18:57:03.316Z,13.63
2018-05-06T18:59:31.533Z,8.53
2018-05-06T19:05:01.930Z,11.57
2018-05-06T19:07:30.173Z,14.30
2018-05-06T19:09:59.203Z,35.37
2018-05-06T19:12:27.737Z,25.07
2018-05-06T19:14:56.020Z,18.63
2018-05-06T19:17:38.471Z,18.00
2018-05-06T19:20:06.691Z,14.73
2018-05-06T19:22:35.692Z,21.03
2018-05-06T19:25:04.679Z,14.80
2018-05-06T19:27:40.200Z,14.43
2018-05-06T19:30:08.451Z,15.37
2018-05-06T19:32:36.718Z,13.00
2018-05-06T19:35:04.855Z,10.70
2018-05-06T19:37:33.955Z,8.87
2018-05-06T19:40:03.138Z,10.60
2018-05-06T19:42:32.150Z,9.07
2018-05-06T19:48:00.617Z,11.30
2018-05-06T19:50:37.094Z,10.00
2018-05-06T19:53:05.384Z,11.40
2018-05-06T19:55:38.337Z,9.30
2018-05-06T19:58:06.584Z,13.07
2018-05-06T20:00:34.765Z,12.57
2018-05-06T20:03:04.033Z,16.10
2018-05-06T20:05:32.281Z,10.87
2018-05-06T20:08:00.481Z,9.53
2018-05-06T20:10:29.467Z,9.90
2018-05-06T20:15:59.705Z,9.90
2018-05-06T20:18:28.771Z,10.27
2018-05-06T20:20:57.787Z,9.37
2018-05-06T20:26:27.559Z,9.93
2018-05-06T20:28:55.786Z,9.13
2018-05-06T20:31:24.855Z,9.30
2018-05-06T20:33:53.033Z,10.10
2018-05-06T20:36:36.324Z,9.27
2018-05-06T20:39:04.668Z,9.73
2018-05-06T20:41:37.497Z,9.10
2018-05-06T20:44:05.772Z,9.20
2018-05-06T20:46:33.995Z,8.70
2018-05-06T20:49:02.976Z,8.53
2018-05-06T20:51:31.981Z,8.27
2018-05-06T20:54:02.415Z,8.60
2018-05-06T20:59:51.019Z,8.97
2018-05-06T21:02:24.449Z,9.00
2018-05-06T21:04:52.647Z,9.10
2018-05-06T21:07:21.590Z,7.83
2018-05-06T21:09:50.618Z,10.67
2018-05-06T21:12:18.799Z,9.17
2018-05-06T21:14:47.786Z,12.70
2018-05-06T21:17:16.013Z,10.67
2018-05-06T21:19:44.228Z,9.10
2018-05-06T21:22:12.421Z,8.70
2018-05-06T21:24:41.490Z,8.87
2018-05-06T21:27:09.838Z,8.97
2018-05-06T21:29:38.061Z,7.43
2018-05-06T21:32:07.079Z,8.80
2018-05-06T21:34:35.250Z,8.30
2018-05-06T21:40:04.235Z,8.60
2018-05-06T21:42:32.511Z,10.17
2018-05-06T21:45:00.892Z,9.53
2018-05-06T21:47:29.090Z,9.87
2018-05-06T21:49:58.780Z,7.90
2018-05-06T21:52:27.735Z,8.07
2018-05-06T21:54:57.054Z,7.90
2018-05-06T21:57:25.237Z,10.13
2018-05-06T22:02:54.127Z,8.23
2018-05-06T22:05:22.407Z,9.97
2018-05-06T22:07:50.750Z,8.20
2018-05-06T22:10:38.690Z,8.03
2018-05-06T22:13:06.967Z,9.17
2018-05-06T22:15:35.187Z,8.50
2018-05-06T22:18:03.541Z,9.50
2018-05-06T22:20:31.738Z,9.77
2018-05-06T22:22:59.923Z,9.60
2018-05-06T22:25:28.899Z,8.20
2018-05-06T22:27:57.090Z,7.80
2018-05-06T22:30:26.058Z,9.30
2018-05-06T22:32:54.326Z,8.40
2018-05-06T22:35:22.502Z,8.30
2018-05-06T22:37:52.212Z,9.27
2018-05-06T22:40:22.021Z,7.50
2018-05-06T22:45:50.634Z,7.93
2018-05-06T22:48:18.869Z,8.67
2018-05-06T22:50:47.059Z,8.87
2018-05-06T22:53:15.344Z,9.47
2018-05-06T22:58:43.762Z,8.53
2018-05-06T23:01:11.944Z,8.17
2018-05-06T23:03:40.890Z,12.30
2018-05-06T23:06:35.566Z,7.00
2018-05-06T23:09:03.748Z,8.40
2018-05-06T23:11:38.105Z,9.20
2018-05-06T23:14:06.277Z,7.63
2018-05-06T23:16:37.836Z,10.47
2018-05-06T23:19:06.029Z,8.90
2018-05-06T23:21:35.005Z,8.57
2018-05-06T23:24:03.994Z,9.23
2018-05-06T23:26:32.172Z,9.30
2018-05-06T23:29:01.131Z,8.00
2018-05-06T23:31:29.350Z,8.70
2018-05-06T23:33:58.288Z,8.73
2018-05-06T23:36:27.309Z,7.90
2018-05-06T23:38:55.529Z,8.10
2018-05-06T23:41:23.703Z,9.90
2018-05-06T23:46:53.375Z,7.70
2018-05-06T23:49:36.913Z,9.40
2018-05-06T23:52:05.198Z,10.53
2018-05-06T23:54:33.470Z,8.00
